Time;durP1;ratioP1;P1;durP2;ratioP2;P2;SDS_P1;SDS_P2;PMS_P1;PMS_P2;Temp;Humidity;BMP_temperature;BMP_pressure;BME280_temperature;BME280_humidity;BME280_pressure;Samples;Min_cycle;Max_cycle;Signal;HPM_P1;HPM_P2
2022/07/17 00:00:58;;;;;;;7.73;2.00;;;;;;;13.33;74.07;102569.91;4970488;28;20038;-91
2022/07/17 00:03:23;;;;;;;7.03;1.90;;;;;;;13.23;74.17;102564.28;4969712;28;20030;-91
2022/07/17 00:05:48;;;;;;;6.57;2.00;;;;;;;13.16;74.59;102567.06;4972297;28;20377;-91
2022/07/17 00:08:14;;;;;;;7.20;2.10;;;;;;;13.20;74.00;102566.59;4972052;28;20034;-90
2022/07/17 00:10:42;;;;;;;13.13;2.37;;;;;;;13.13;74.34;102562.16;4971246;28;20027;-91
2022/07/17 00:13:07;;;;;;;6.20;2.38;;;;;;;13.09;73.89;102569.06;4971770;28;20110;-91
2022/07/17 00:15:33;;;;;;;8.57;2.65;;;;;;;13.02;74.59;102569.16;4970418;28;20502;-91
2022/07/17 00:17:59;;;;;;;5.60;2.13;;;;;;;12.99;74.36;102571.50;4970865;28;20502;-91
2022/07/17 00:20:25;;;;;;;6.72;2.50;;;;;;;12.93;74.80;102564.34;4971431;28;20034;-91
2022/07/17 00:22:51;;;;;;;8.98;2.58;;;;;;;12.92;75.21;102568.09;4970773;28;20038;-91
2022/07/17 00:25:17;;;;;;;7.32;2.70;;;;;;;12.88;74.97;102581.16;4971765;28;20690;-91
2022/07/17 00:27:42;;;;;;;8.63;2.57;;;;;;;12.80;75.16;102560.81;4972128;28;20027;-91
2022/07/17 00:30:08;;;;;;;7.63;2.40;;;;;;;12.77;75.00;102569.34;4972868;28;20031;-91
2022/07/17 00:32:34;;;;;;;6.15;2.58;;;;;;;12.73;75.27;102573.56;4968014;28;20030;-90
2022/07/17 00:34:59;;;;;;;5.53;2.63;;;;;;;12.69;75.36;102575.84;4970273;28;20035;-91
2022/07/17 00:37:24;;;;;;;7.57;2.50;;;;;;;12.65;76.01;102573.88;4972485;28;20118;-90
2022/07/17 00:39:50;;;;;;;6.53;2.42;;;;;;;12.57;76.12;102567.78;4970038;28;20038;-91
2022/07/17 00:42:16;;;;;;;6.00;2.57;;;;;;;12.48;76.00;102569.13;4967312;28;20105;-91
2022/07/17 00:44:43;;;;;;;6.93;2.70;;;;;;;12.50;76.19;102569.72;4971806;28;20037;-91
2022/07/17 00:47:14;;;;;;;7.38;2.85;;;;;;;12.47;76.42;102564.81;4972263;28;20595;-91
2022/07/17 00:49:39;;;;;;;8.85;2.55;;;;;;;12.45;76.81;102564.19;4970786;28;20402;-90
2022/07/17 00:52:06;;;;;;;11.60;2.63;;;;;;;12.35;76.59;102574.69;4970877;28;20034;-91
2022/07/17 00:54:35;;;;;;;10.63;2.60;;;;;;;12.31;76.93;102568.97;4978984;28;20030;-90
2022/07/17 00:57:05;;;;;;;7.13;2.83;;;;;;;12.30;77.04;102585.28;4993022;28;20022;-90
2022/07/17 00:59:32;;;;;;;7.35;2.42;;;;;;;12.28;77.00;102574.78;5009582;28;20026;-91
2022/07/17 01:01:58;;;;;;;10.13;2.92;;;;;;;12.24;77.14;102579.78;5008945;28;20034;-90
2022/07/17 01:04:23;;;;;;;7.03;2.80;;;;;;;12.18;77.22;102569.94;5009703;28;20030;-90
2022/07/17 01:06:48;;;;;;;8.93;2.70;;;;;;;12.18;77.37;102569.09;5006343;28;20565;-91
2022/07/17 01:09:14;;;;;;;9.17;2.77;;;;;;;12.19;77.26;102562.69;5005157;28;20037;-89
2022/07/17 01:11:39;;;;;;;6.70;2.85;;;;;;;12.11;78.08;102561.13;5002569;28;20022;-91
2022/07/17 01:14:05;;;;;;;13.20;3.10;;;;;;;12.13;77.87;102564.41;4993767;28;20113;-91
2022/07/17 01:16:32;;;;;;;9.45;3.20;;;;;;;12.06;78.63;102564.50;4993345;28;20026;-90
2022/07/17 01:18:58;;;;;;;5.82;2.47;;;;;;;12.01;78.48;102558.16;4992760;28;20026;-91
2022/07/17 01:21:24;;;;;;;6.50;2.30;;;;;;;11.94;77.88;102550.16;4992968;28;20469;-91
2022/07/17 01:23:49;;;;;;;5.47;2.10;;;;;;;11.93;78.80;102557.38;4989988;28;20312;-91
2022/07/17 01:26:15;;;;;;;7.83;2.50;;;;;;;11.87;78.22;102560.16;4994066;28;20069;-90
2022/07/17 01:28:40;;;;;;;10.70;2.67;;;;;;;11.75;79.71;102560.06;4993321;28;20505;-91
2022/07/17 01:31:05;;;;;;;5.32;2.58;;;;;;;11.72;78.72;102560.50;4990010;28;20033;-91
2022/07/17 01:33:31;;;;;;;5.73;2.70;;;;;;;11.67;79.63;102563.88;4989268;28;20034;-91
2022/07/17 01:35:56;;;;;;;4.03;2.27;;;;;;;11.68;78.87;102560.13;4990528;28;20035;-90
2022/07/17 01:38:22;;;;;;;8.52;2.38;;;;;;;11.64;79.02;102561.63;4988855;28;20018;-91
2022/07/17 01:40:47;;;;;;;4.97;3.00;;;;;;;11.58;79.67;102552.59;4987919;28;20057;-91
2022/07/17 01:43:12;;;;;;;8.40;2.60;;;;;;;11.60;79.70;102550.50;4989828;28;20048;-91
2022/07/17 01:45:39;;;;;;;4.90;2.70;;;;;;;11.52;80.70;102546.25;4989793;28;20109;-91
2022/07/17 01:48:04;;;;;;;5.63;2.65;;;;;;;11.48;80.38;102549.63;4990394;28;20030;-91
2022/07/17 01:50:30;;;;;;;7.55;2.75;;;;;;;11.48;80.23;102558.47;4987740;28;20048;-91
2022/07/17 01:52:55;;;;;;;10.60;2.80;;;;;;;11.43;80.55;102558.31;4989249;28;20080;-90
2022/07/17 01:55:20;;;;;;;4.53;2.57;;;;;;;11.41;80.47;102554.22;4988612;28;20061;-91
2022/07/17 01:57:45;;;;;;;5.13;2.30;;;;;;;11.34;80.83;102556.97;4989170;28;20038;-91
2022/07/17 02:00:16;;;;;;;10.10;2.47;;;;;;;11.35;81.25;102566.66;4989932;28;20042;-90
2022/07/17 02:02:41;;;;;;;6.20;2.70;;;;;;;11.28;81.87;102569.41;4989393;28;20030;-90
2022/07/17 02:05:07;;;;;;;5.50;2.43;;;;;;;11.23;82.72;102569.22;4991214;28;20037;-92
2022/07/17 02:07:34;;;;;;;7.13;2.60;;;;;;;11.21;81.99;102565.94;4992368;28;20022;-91
2022/07/17 02:10:00;;;;;;;6.45;2.53;;;;;;;11.19;81.44;102558.13;4990834;28;20031;-91
2022/07/17 02:12:25;;;;;;;7.33;2.50;;;;;;;11.18;82.33;102572.56;4990155;28;20050;-92
2022/07/17 02:14:50;;;;;;;8.60;2.67;;;;;;;11.18;82.68;102569.06;4989527;28;20027;-91
2022/07/17 02:17:16;;;;;;;6.03;2.50;;;;;;;11.10;82.44;102561.31;4990497;28;20169;-91
2022/07/17 02:19:41;;;;;;;6.53;2.80;;;;;;;11.09;82.32;102568.50;4990873;28;20026;-92
2022/07/17 02:22:07;;;;;;;7.10;2.70;;;;;;;11.03;82.72;102561.34;4993522;28;20069;-92
2022/07/17 02:24:32;;;;;;;8.90;2.70;;;;;;;10.96;83.49;102566.75;4993087;28;20034;-92
2022/07/17 02:26:57;;;;;;;7.37;2.60;;;;;;;10.89;82.72;102564.13;4994000;28;20301;-92
2022/07/17 02:29:22;;;;;;;12.97;2.70;;;;;;;10.94;83.05;102571.53;4991272;28;20355;-91
2022/07/17 02:31:48;;;;;;;9.03;2.60;;;;;;;10.94;83.80;102571.53;4993358;28;20030;-92
2022/07/17 02:34:13;;;;;;;4.87;2.57;;;;;;;10.94;83.90;102571.53;4994665;28;20063;-91
2022/07/17 02:36:38;;;;;;;12.70;2.60;;;;;;;10.91;83.55;102566.59;5006641;28;20018;-91
2022/07/17 02:39:04;;;;;;;3.27;2.10;;;;;;;10.86;83.47;102563.72;4991901;28;20605;-92
2022/07/17 02:41:29;;;;;;;5.80;2.50;;;;;;;10.83;83.32;102558.81;4991464;28;20828;-91
2022/07/17 02:43:54;;;;;;;6.33;2.57;;;;;;;10.83;83.77;102556.13;4990658;28;20029;-92
2022/07/17 02:46:20;;;;;;;6.17;2.73;;;;;;;10.81;84.23;102552.81;4991848;28;20933;-91
2022/07/17 02:48:45;;;;;;;6.83;2.80;;;;;;;10.75;84.68;102550.00;4992898;28;20041;-92
2022/07/17 02:51:10;;;;;;;7.73;2.70;;;;;;;10.70;84.03;102543.63;4975150;28;20049;-92
2022/07/17 02:53:36;;;;;;;5.27;2.53;;;;;;;10.69;84.48;102548.16;4992279;28;20121;-92
2022/07/17 02:56:01;;;;;;;11.13;3.00;;;;;;;10.65;84.64;102546.97;4973780;28;20302;-92
2022/07/17 02:58:27;;;;;;;5.93;2.63;;;;;;;10.62;84.67;102544.69;4970921;28;20039;-92
2022/07/17 03:00:52;;;;;;;9.10;2.87;;;;;;;10.56;85.27;102540.22;4970510;28;20035;-92
2022/07/17 03:03:19;;;;;;;8.20;2.90;;;;;;;10.56;85.27;102543.72;4971073;28;20085;-92
2022/07/17 03:05:45;;;;;;;5.80;2.70;;;;;;;10.55;85.21;102546.63;4968818;28;20298;-92
2022/07/17 03:08:10;;;;;;;8.38;2.50;;;;;;;10.53;84.97;102551.38;4972538;28;20031;-92
2022/07/17 03:10:36;;;;;;;7.00;2.87;;;;;;;10.54;85.35;102561.06;4972028;28;20058;-92
2022/07/17 03:13:01;;;;;;;8.20;3.13;;;;;;;10.49;85.43;102559.03;4972567;28;20023;-92
2022/07/17 03:15:27;;;;;;;10.00;2.90;;;;;;;10.50;85.18;102568.69;4972840;28;20024;-92
2022/07/17 03:17:52;;;;;;;11.07;2.87;;;;;;;10.46;85.73;102575.53;4970483;28;20039;-93
2022/07/17 03:20:17;;;;;;;6.53;2.67;;;;;;;10.39;85.02;102570.22;4972840;28;20023;-93
2022/07/17 03:22:43;;;;;;;6.50;2.63;;;;;;;10.37;85.60;102571.41;4970887;28;20841;-92
2022/07/17 03:25:09;;;;;;;6.00;2.77;;;;;;;10.32;86.27;102577.41;4973346;28;20345;-92
2022/07/17 03:27:34;;;;;;;6.53;2.40;;;;;;;10.28;86.03;102578.88;4972258;28;20041;-91
2022/07/17 03:29:59;;;;;;;6.43;3.20;;;;;;;10.20;85.42;102577.25;4971702;28;20381;-92
2022/07/17 03:32:25;;;;;;;7.27;2.93;;;;;;;10.13;86.22;102571.91;4970517;28;20388;-92
2022/07/17 03:34:50;;;;;;;6.80;3.17;;;;;;;10.17;85.88;102575.00;4971314;28;20034;-92
2022/07/17 03:37:15;;;;;;;6.13;3.33;;;;;;;10.18;86.34;102565.91;4973212;28;20102;-92
2022/07/17 03:39:41;;;;;;;7.33;3.20;;;;;;;10.24;86.83;102562.41;4972169;28;20037;-90
2022/07/17 03:42:06;;;;;;;5.05;3.15;;;;;;;10.22;86.75;102558.31;4971151;28;20482;-92
2022/07/17 03:44:31;;;;;;;8.50;3.40;;;;;;;10.20;86.55;102558.50;4971108;28;20462;-92
2022/07/17 03:46:57;;;;;;;7.33;3.07;;;;;;;10.19;87.45;102564.88;4972883;28;20442;-93
2022/07/17 03:49:22;;;;;;;9.90;2.87;;;;;;;10.18;88.08;102562.44;4973765;28;20026;-91
2022/07/17 03:51:48;;;;;;;11.53;3.60;;;;;;;10.19;87.88;102564.88;4970814;28;20039;-93
2022/07/17 03:54:14;;;;;;;7.32;2.97;;;;;;;10.21;87.51;102568.19;4976383;28;20061;-92
2022/07/17 03:56:39;;;;;;;4.90;2.90;;;;;;;10.21;86.86;102562.81;4991990;28;20022;-93
2022/07/17 03:59:04;;;;;;;7.27;2.67;;;;;;;10.22;87.03;102555.63;4992196;28;20117;-94
2022/07/17 04:01:29;;;;;;;7.90;3.10;;;;;;;10.20;87.57;102563.06;4992022;28;20565;-92
2022/07/17 04:03:55;;;;;;;4.97;3.30;;;;;;;10.22;87.64;102564.47;4989766;28;20022;-92
2022/07/17 04:06:20;;;;;;;8.07;3.47;;;;;;;10.27;86.77;102572.69;4990240;28;20096;-90
2022/07/17 04:08:45;;;;;;;3.83;3.00;;;;;;;10.28;86.65;102569.00;4985559;28;20026;-91
2022/07/17 04:11:11;;;;;;;9.80;3.40;;;;;;;10.33;88.08;102584.41;4990700;28;20129;-91
2022/07/17 04:13:37;;;;;;;6.13;3.50;;;;;;;10.39;87.86;102594.31;4989827;28;20112;-91
2022/07/17 04:16:03;;;;;;;6.20;3.13;;;;;;;10.44;86.65;102586.44;4997276;28;20030;-94
2022/07/17 04:18:30;;;;;;;12.82;3.53;;;;;;;10.54;86.72;102590.53;4991378;28;20045;-95
2022/07/17 04:21:00;;;;;;;7.37;3.47;;;;;;;10.62;85.74;102594.81;4992586;28;20030;-94
2022/07/17 04:23:26;;;;;;;6.13;3.42;;;;;;;10.70;85.89;102592.72;4989548;28;20026;-94
2022/07/17 04:25:52;;;;;;;4.75;3.15;;;;;;;10.83;85.06;102589.13;4990169;28;20442;-92
2022/07/17 04:28:17;;;;;;;6.18;3.63;;;;;;;10.88;85.15;102593.84;4989656;28;20062;-95
2022/07/17 04:30:43;;;;;;;8.70;3.80;;;;;;;10.93;85.03;102594.03;4975312;28;20017;-94
2022/07/17 04:33:08;;;;;;;5.93;3.80;;;;;;;11.03;84.35;102585.50;4990348;28;20030;-90
2022/07/17 04:35:34;;;;;;;6.85;3.80;;;;;;;11.06;84.62;102590.41;4984217;28;20022;-91
2022/07/17 04:38:00;;;;;;;5.67;4.00;;;;;;;11.17;84.41;102587.03;4982233;28;20094;-91
2022/07/17 04:40:26;;;;;;;7.80;4.03;;;;;;;11.20;84.14;102583.91;4993756;28;20397;-91
2022/07/17 04:42:51;;;;;;;5.57;3.50;;;;;;;11.26;83.35;102584.91;4988406;28;20717;-91
2022/07/17 04:45:17;;;;;;;8.23;4.10;;;;;;;11.33;82.84;102585.66;4991275;28;20269;-91
2022/07/17 04:47:42;;;;;;;10.20;3.60;;;;;;;11.39;83.19;102583.13;4991643;28;20026;-91
2022/07/17 04:50:09;;;;;;;9.10;3.80;;;;;;;11.47;83.34;102596.28;4990408;28;20034;-91
2022/07/17 04:52:34;;;;;;;8.60;3.95;;;;;;;11.61;83.61;102595.13;4991317;28;20026;-91
2022/07/17 04:55:00;;;;;;;6.22;4.13;;;;;;;11.76;83.50;102588.56;4991135;28;20648;-91
2022/07/17 04:57:26;;;;;;;10.27;4.30;;;;;;;11.89;82.85;102603.72;4988870;28;20038;-91
2022/07/17 04:59:51;;;;;;;6.57;4.50;;;;;;;11.89;83.13;102604.53;4988976;28;20037;-91
2022/07/17 05:02:17;;;;;;;14.57;4.60;;;;;;;12.57;81.47;102618.03;4991329;28;20033;-91
2022/07/17 05:04:42;;;;;;;9.80;4.10;;;;;;;13.60;77.77;102617.13;4989960;28;20030;-90
2022/07/17 05:07:08;;;;;;;6.20;4.23;;;;;;;14.56;73.71;102617.72;4989808;28;20588;-91
2022/07/17 05:09:33;;;;;;;9.57;4.10;;;;;;;15.42;69.54;102619.47;4989000;28;20508;-91
2022/07/17 05:11:58;;;;;;;9.33;3.90;;;;;;;16.20;66.64;102616.78;4990486;28;20030;-91
2022/07/17 05:14:23;;;;;;;7.30;3.40;;;;;;;16.99;63.14;102624.63;4988769;28;20366;-91
2022/07/17 05:16:49;;;;;;;7.07;3.93;;;;;;;17.69;61.51;102610.22;4987828;28;20800;-90
2022/07/17 05:19:14;;;;;;;6.20;3.27;;;;;;;18.39;59.39;102618.13;4990357;28;20034;-90
2022/07/17 05:21:39;;;;;;;5.40;3.37;;;;;;;18.90;56.52;102622.84;4990839;28;20023;-90
2022/07/17 05:24:05;;;;;;;11.07;3.30;;;;;;;19.43;55.23;102612.78;4990466;28;20109;-90
2022/07/17 05:26:30;;;;;;;8.43;3.33;;;;;;;19.81;54.00;102619.47;4989948;28;20022;-90
2022/07/17 05:28:55;;;;;;;9.40;2.80;;;;;;;20.07;52.07;102613.16;4990058;28;20294;-87
2022/07/17 05:31:21;;;;;;;9.57;3.00;;;;;;;20.33;52.19;102618.47;4986573;28;20556;-90
2022/07/17 05:33:46;;;;;;;7.67;2.93;;;;;;;20.56;50.92;102615.03;4989581;28;20037;-90
2022/07/17 05:36:11;;;;;;;5.57;3.00;;;;;;;20.95;50.02;102618.88;4989960;28;20030;-90
2022/07/17 05:38:37;;;;;;;5.50;2.20;;;;;;;20.97;49.80;102622.16;4988895;28;20129;-90
2022/07/17 05:41:03;;;;;;;5.82;2.42;;;;;;;20.96;48.95;102625.13;4989529;28;20029;-90
2022/07/17 05:43:28;;;;;;;6.87;2.73;;;;;;;21.00;49.29;102615.31;4990782;28;20417;-90
2022/07/17 05:45:54;;;;;;;6.47;2.67;;;;;;;21.03;49.04;102625.63;4991102;28;20072;-90
2022/07/17 05:48:20;;;;;;;6.75;2.47;;;;;;;21.09;48.70;102620.94;4987946;28;20102;-91
2022/07/17 05:50:46;;;;;;;6.55;2.80;;;;;;;21.30;48.58;102606.03;4989188;28;20060;-91
2022/07/17 05:53:12;;;;;;;7.07;2.63;;;;;;;21.15;48.57;102603.47;4990325;28;20541;-90
2022/07/17 05:55:37;;;;;;;9.43;3.08;;;;;;;20.66;49.54;102611.44;4978048;28;20050;-90
2022/07/17 05:58:02;;;;;;;8.80;2.80;;;;;;;20.48;50.53;102617.53;4982945;28;20038;-90
2022/07/17 06:00:28;;;;;;;4.87;2.57;;;;;;;20.25;50.78;102622.59;4981306;28;20387;-91
2022/07/17 06:02:53;;;;;;;7.85;3.13;;;;;;;19.71;52.41;102613.25;4980518;28;20034;-90
2022/07/17 06:05:19;;;;;;;7.80;2.40;;;;;;;19.39;53.53;102596.19;4978154;28;20107;-90
2022/07/17 06:07:44;;;;;;;9.67;2.70;;;;;;;18.94;54.34;102606.00;4978491;28;20022;-90
2022/07/17 06:10:09;;;;;;;6.27;3.00;;;;;;;18.55;55.16;102605.44;4976871;28;20110;-90
2022/07/17 06:12:35;;;;;;;8.50;3.03;;;;;;;18.27;56.08;102593.94;4974627;28;20038;-89
2022/07/17 06:15:00;;;;;;;9.00;3.00;;;;;;;18.08;57.42;102585.50;4974147;28;20429;-90
2022/07/17 06:17:25;;;;;;;7.47;2.70;;;;;;;17.88;58.63;102594.34;4974247;28;20041;-90
2022/07/17 06:19:51;;;;;;;9.27;3.50;;;;;;;17.54;60.01;102581.16;4971286;28;20074;-90
2022/07/17 06:22:20;;;;;;;7.95;3.45;;;;;;;17.36;60.57;102580.50;4974488;28;20027;-93
2022/07/17 06:24:46;;;;;;;9.07;2.63;;;;;;;17.29;60.53;102584.50;4974044;28;20059;-93
2022/07/17 06:27:11;;;;;;;3.80;3.03;;;;;;;17.11;60.38;102586.56;4975187;28;20034;-93
2022/07/17 06:29:37;;;;;;;10.10;3.10;;;;;;;16.95;61.21;102596.47;4973127;28;20042;-93
2022/07/17 06:32:02;;;;;;;6.77;3.00;;;;;;;16.88;61.67;102595.81;4972076;28;20390;-91
2022/07/17 06:34:28;;;;;;;11.17;3.37;;;;;;;16.80;62.77;102597.91;4975874;28;20478;-91
2022/07/17 06:36:53;;;;;;;9.93;3.50;;;;;;;16.77;62.29;102616.56;4974374;28;20039;-91
2022/07/17 06:39:18;;;;;;;6.80;3.50;;;;;;;16.78;62.82;102616.31;4974573;28;20482;-93
2022/07/17 06:41:44;;;;;;;8.03;3.23;;;;;;;16.84;63.83;102605.53;4976073;28;20023;-90
2022/07/17 06:44:09;;;;;;;11.37;3.60;;;;;;;16.81;62.79;102609.56;4977235;28;20018;-91
2022/07/17 06:46:34;;;;;;;9.13;3.30;;;;;;;16.80;62.99;102616.06;4977949;28;20567;-91
2022/07/17 06:48:59;;;;;;;12.30;3.50;;;;;;;16.91;62.83;102627.81;4979818;28;20039;-92
2022/07/17 06:51:25;;;;;;;11.98;3.55;;;;;;;17.08;62.98;102622.28;4976220;28;20039;-91
2022/07/17 06:53:50;;;;;;;6.10;3.37;;;;;;;17.17;62.57;102628.88;4976952;28;20110;-92
2022/07/17 06:56:15;;;;;;;10.53;4.03;;;;;;;17.12;62.52;102636.94;4992379;28;20026;-90
2022/07/17 06:58:41;;;;;;;10.90;3.30;;;;;;;17.12;62.52;102639.66;4994317;28;20022;-89
2022/07/17 07:01:06;;;;;;;14.67;3.73;;;;;;;17.24;61.95;102650.31;4992662;28;20106;-91
2022/07/17 07:03:31;;;;;;;8.30;3.27;;;;;;;17.23;61.16;102644.09;4993656;28;20647;-93
2022/07/17 07:05:57;;;;;;;10.13;3.10;;;;;;;17.43;61.30;102639.91;4986906;28;20038;-93
2022/07/17 07:08:23;;;;;;;11.53;3.10;;;;;;;17.54;61.40;102647.00;4990286;28;20296;-92
2022/07/17 07:10:48;;;;;;;12.73;3.47;;;;;;;17.65;61.55;102637.06;4996125;28;20034;-90
2022/07/17 07:13:14;;;;;;;6.30;2.90;;;;;;;17.77;60.58;102649.59;5002463;28;20105;-90
2022/07/17 07:15:39;;;;;;;14.70;3.80;;;;;;;17.83;59.14;102651.25;4994587;28;20026;-90
2022/07/17 07:18:04;;;;;;;8.37;3.20;;;;;;;17.90;58.67;102657.25;5005245;28;20017;-92
2022/07/17 07:20:30;;;;;;;9.20;3.00;;;;;;;17.97;58.70;102660.53;5004363;28;21067;-93
2022/07/17 07:22:55;;;;;;;8.53;2.87;;;;;;;18.02;57.87;102657.06;4995015;28;20149;-89
2022/07/17 07:25:21;;;;;;;5.28;2.50;;;;;;;18.12;58.85;102661.72;4992861;28;20030;-91
2022/07/17 07:27:46;;;;;;;8.13;3.20;;;;;;;18.28;58.80;102655.28;4993893;28;20073;-89
2022/07/17 07:30:12;;;;;;;5.47;2.90;;;;;;;18.41;58.43;102648.53;5003544;28;20019;-94
2022/07/17 07:32:39;;;;;;;9.33;3.50;;;;;;;18.60;58.78;102645.34;5001512;28;20022;-91
2022/07/17 07:35:07;;;;;;;11.02;3.55;;;;;;;18.61;57.87;102638.81;4995496;28;20080;-90
2022/07/17 07:37:32;;;;;;;15.32;3.42;;;;;;;18.63;57.73;102650.22;5004607;28;20088;-91
2022/07/17 07:39:57;;;;;;;7.33;2.80;;;;;;;18.73;57.26;102646.72;4997832;28;20726;-90
2022/07/17 07:42:23;;;;;;;7.07;2.97;;;;;;;18.72;57.14;102643.19;4993365;28;20019;-90
2022/07/17 07:44:48;;;;;;;9.73;3.10;;;;;;;18.84;55.84;102645.63;4992117;28;20027;-87
2022/07/17 07:47:14;;;;;;;6.53;2.47;;;;;;;19.05;55.78;102649.22;4990426;28;20064;-87
2022/07/17 07:49:39;;;;;;;7.83;3.20;;;;;;;19.21;54.12;102655.47;4991486;28;20112;-85
2022/07/17 07:52:04;;;;;;;6.63;3.10;;;;;;;19.32;54.26;102650.03;4984468;28;20042;-86
2022/07/17 07:54:31;;;;;;;10.63;2.92;;;;;;;19.41;52.95;102653.81;4989972;28;20050;-88
2022/07/17 07:56:56;;;;;;;10.38;3.05;;;;;;;19.63;53.48;102652.72;4990343;28;20384;-89
2022/07/17 07:59:22;;;;;;;7.20;2.23;;;;;;;19.74;52.75;102650.78;4991815;28;20026;-87
2022/07/17 08:01:47;;;;;;;10.40;3.22;;;;;;;19.85;52.50;102655.09;4990975;28;20030;-89
2022/07/17 08:04:13;;;;;;;11.07;3.70;;;;;;;19.87;52.22;102655.66;4989573;28;22030;-89
2022/07/17 08:06:38;;;;;;;6.10;3.20;;;;;;;19.68;53.05;102660.84;4989704;28;20030;-87
2022/07/17 08:09:04;;;;;;;7.37;3.10;;;;;;;19.74;53.24;102661.66;4985690;28;20104;-87
2022/07/17 08:11:29;;;;;;;11.02;3.53;;;;;;;19.86;52.51;102655.91;4990405;28;20034;-86
2022/07/17 08:13:54;;;;;;;6.67;2.80;;;;;;;19.95;52.53;102659.72;4990325;28;20081;-85
2022/07/17 08:16:20;;;;;;;9.87;3.03;;;;;;;20.00;51.21;102665.16;4982406;28;20030;-86
2022/07/17 08:18:45;;;;;;;9.30;3.53;;;;;;;20.03;52.07;102659.16;4986977;28;20546;-87
2022/07/17 08:21:11;;;;;;;8.43;3.50;;;;;;;20.22;52.18;102662.06;4989879;28;20034;-86
2022/07/17 08:23:36;;;;;;;9.70;2.97;;;;;;;20.45;50.66;102664.41;4989014;28;20030;-86
2022/07/17 08:26:02;;;;;;;14.80;3.70;;;;;;;20.63;50.73;102660.22;4991332;28;20041;-86
2022/07/17 08:28:27;;;;;;;11.38;3.47;;;;;;;20.84;49.37;102664.47;4991351;28;20117;-93
2022/07/17 08:30:53;;;;;;;9.73;3.07;;;;;;;20.87;49.45;102676.69;4989573;28;20549;-88
2022/07/17 08:33:18;;;;;;;9.27;2.60;;;;;;;20.95;48.06;102667.94;4990112;28;20041;-89
2022/07/17 08:35:43;;;;;;;3.23;2.10;;;;;;;20.99;46.47;102662.72;4991193;28;20046;-87
2022/07/17 08:38:09;;;;;;;7.00;2.72;;;;;;;21.07;47.31;102658.56;4990071;28;20038;-84
2022/07/17 08:40:36;;;;;;;6.00;2.33;;;;;;;21.13;47.37;102666.41;4989728;28;20069;-83
2022/07/17 08:43:04;;;;;;;5.03;1.90;;;;;;;21.17;46.00;102661.22;4973367;28;20018;-87
2022/07/17 08:45:29;;;;;;;9.35;2.47;;;;;;;21.18;46.36;102654.69;4988569;28;20045;-86
2022/07/17 08:47:55;;;;;;;11.03;2.30;;;;;;;21.36;47.33;102660.50;4991001;28;20026;-86
2022/07/17 08:50:33;;;;;;;7.03;2.42;;;;;;;21.56;47.26;102657.56;4989847;28;20034;-89
2022/07/17 08:52:59;;;;;;;5.25;2.58;;;;;;;21.65;45.60;102659.69;4990598;28;20038;-86
2022/07/17 08:55:25;;;;;;;8.00;2.50;;;;;;;21.68;45.75;102659.13;4978648;28;20034;-91
2022/07/17 08:57:50;;;;;;;6.50;2.20;;;;;;;21.50;45.22;102669.63;4975074;28;20301;-91
2022/07/17 09:00:22;;;;;;;4.03;2.10;;;;;;;21.82;45.64;102659.25;4984031;28;20122;-90
2022/07/17 09:02:58;;;;;;;5.70;2.17;;;;;;;21.97;45.40;102658.25;4983530;28;20090;-90
2022/07/17 09:05:37;;;;;;;10.52;2.08;;;;;;;22.09;44.51;102653.19;4972844;28;20034;-91
2022/07/17 09:08:05;;;;;;;4.45;1.70;;;;;;;21.85;43.96;102662.22;4982405;28;20110;-91
2022/07/17 09:10:43;;;;;;;7.93;2.37;;;;;;;21.69;44.49;102660.75;4973283;28;20046;-91
2022/07/17 09:13:24;;;;;;;6.07;2.50;;;;;;;21.65;45.17;102648.78;4971783;28;20701;-88
2022/07/17 09:15:54;;;;;;;5.68;2.33;;;;;;;21.67;45.56;102652.03;4972857;28;20047;-94
2022/07/17 09:18:20;;;;;;;4.53;2.38;;;;;;;21.75;44.53;102651.38;5165688;23;20125;-91
2022/07/17 09:20:51;;;;;;;4.82;1.95;;;;;;;22.11;44.23;102639.25;5011078;28;20100;-93
2022/07/17 09:23:18;;;;;;;7.22;1.90;;;;;;;22.28;44.12;102647.75;5012275;28;20029;-89
2022/07/17 09:25:50;;;;;;;6.68;2.10;;;;;;;22.48;44.05;102652.13;5010136;28;20030;-91
2022/07/17 09:28:16;;;;;;;6.72;2.40;;;;;;;22.42;44.53;102653.34;5009153;28;20404;-89
2022/07/17 09:30:45;;;;;;;9.10;2.47;;;;;;;22.56;44.34;102650.66;5009779;28;20022;-91
2022/07/17 09:33:19;;;;;;;4.10;2.00;;;;;;;22.66;43.67;102650.53;5010438;28;20034;-91
2022/07/17 09:35:53;;;;;;;6.90;2.20;;;;;;;22.84;43.00;102653.53;5009287;28;20295;-88
2022/07/17 09:38:37;;;;;;;7.70;2.13;;;;;;;22.88;42.06;102659.19;4974783;28;20062;-89
2022/07/17 09:41:18;;;;;;;6.75;2.20;;;;;;;22.89;42.33;102639.78;4990597;28;20034;-89
2022/07/17 09:43:52;;;;;;;6.90;2.53;;;;;;;22.90;42.32;102638.69;5003163;28;20030;-87
2022/07/17 09:48:54;;;;;;;5.00;2.13;;;;;;;23.26;41.54;102634.53;5007437;28;20045;-88
2022/07/17 09:51:23;;;;;;;7.55;2.78;;;;;;;23.21;39.76;102642.81;5010231;28;20030;-87
2022/07/17 09:53:51;;;;;;;8.23;2.63;;;;;;;23.40;40.05;102645.50;5008853;28;20029;-86
2022/07/17 09:56:18;;;;;;;6.40;2.92;;;;;;;23.54;40.22;102643.59;5009105;28;20034;-87
2022/07/17 09:58:57;;;;;;;8.13;2.40;;;;;;;23.83;39.43;102638.94;5009123;28;20615;-87
2022/07/17 10:01:22;;;;;;;8.17;3.03;;;;;;;23.98;39.84;102646.84;4991463;28;20285;-86
2022/07/17 10:03:50;;;;;;;6.13;2.53;;;;;;;23.79;39.31;102637.91;5008349;28;20049;-86
2022/07/17 10:06:15;;;;;;;6.22;2.58;;;;;;;23.57;39.59;102647.63;5009009;28;20471;-87
2022/07/17 10:08:41;;;;;;;8.63;2.30;;;;;;;23.65;39.86;102646.94;5008927;28;20038;-85
2022/07/17 10:11:08;;;;;;;6.50;2.37;;;;;;;23.82;40.48;102648.25;5009448;28;20034;-86
2022/07/17 10:13:39;;;;;;;12.55;2.92;;;;;;;24.02;40.13;102647.88;5008711;28;20099;-85
2022/07/17 10:16:05;;;;;;;7.68;2.72;;;;;;;24.16;38.29;102657.97;4991482;28;20112;-87
2022/07/17 10:18:41;;;;;;;7.00;2.38;;;;;;;24.08;38.80;102651.31;5008677;28;20547;-87
2022/07/17 10:21:15;;;;;;;4.63;2.33;;;;;;;24.11;37.37;102647.13;5002500;28;20056;-87
2022/07/17 10:24:06;;;;;;;10.50;2.30;;;;;;;24.40;38.36;102641.28;4993161;28;20046;-87
2022/07/17 10:26:38;;;;;;;6.18;2.40;;;;;;;24.35;36.66;102646.91;4999016;28;20022;-87
2022/07/17 10:29:07;;;;;;;4.63;2.03;;;;;;;24.50;38.01;102648.47;4999462;28;20121;-87
2022/07/17 10:31:34;;;;;;;9.10;2.67;;;;;;;24.62;38.62;102637.78;5004942;28;20331;-88
2022/07/17 10:34:01;;;;;;;8.77;2.65;;;;;;;24.57;37.43;102645.28;5006051;28;20049;-88
2022/07/17 10:36:43;;;;;;;9.40;2.67;;;;;;;24.79;37.24;102647.28;5008410;28;20041;-90
2022/07/17 10:39:15;;;;;;;6.38;2.97;;;;;;;24.73;37.47;102648.50;5009053;28;20030;-89
2022/07/17 10:41:42;;;;;;;5.65;2.30;;;;;;;24.97;36.90;102636.44;5010849;28;20038;-89
2022/07/17 10:44:07;;;;;;;7.70;2.38;;;;;;;25.15;36.55;102648.28;5012557;28;20026;-89
2022/07/17 10:46:33;;;;;;;10.03;2.83;;;;;;;25.06;37.01;102645.50;5012236;28;20052;-88
2022/07/17 10:49:03;;;;;;;5.65;2.30;;;;;;;25.23;37.33;102634.63;5010894;28;20029;-89
2022/07/17 10:51:29;;;;;;;8.60;2.13;;;;;;;25.20;35.43;102638.00;5012544;28;20029;-86
2022/07/17 10:53:59;;;;;;;7.07;2.40;;;;;;;25.34;35.02;102645.34;5012315;28;20141;-88
2022/07/17 10:56:25;;;;;;;6.57;2.20;;;;;;;25.60;34.32;102640.00;5010939;28;20293;-89
2022/07/17 10:58:51;;;;;;;7.10;2.22;;;;;;;25.45;35.63;102635.72;5006522;28;20068;-88
2022/07/17 11:01:18;;;;;;;7.18;2.30;;;;;;;25.43;32.74;102643.47;5012092;28;20038;-89
2022/07/17 11:03:51;;;;;;;6.00;2.53;;;;;;;25.39;34.55;102643.25;5011062;28;20026;-88
2022/07/17 11:06:20;;;;;;;8.13;2.60;;;;;;;25.49;35.91;102644.94;5011926;28;20030;-89
2022/07/17 11:08:52;;;;;;;5.97;1.85;;;;;;;25.75;33.13;102646.97;4993190;28;20560;-89
2022/07/17 11:11:20;;;;;;;4.15;2.40;;;;;;;25.80;32.69;102649.56;4992932;28;20085;-88
2022/07/17 11:13:46;;;;;;;6.70;2.13;;;;;;;25.97;34.04;102642.50;5005771;28;20057;-89
2022/07/17 11:16:12;;;;;;;6.60;2.28;;;;;;;25.98;34.40;102650.44;5010147;28;20036;-89
2022/07/17 11:18:45;;;;;;;6.40;2.00;;;;;;;26.10;34.00;102644.31;5010401;28;20045;-90
2022/07/17 11:21:10;;;;;;;6.57;1.90;;;;;;;26.32;33.68;102639.03;5010592;28;20651;-93
2022/07/17 11:23:35;;;;;;;5.28;2.00;;;;;;;26.28;33.94;102627.88;5011564;28;20026;-92